Terminal Aerodrome Forecast
Issued by NWS

Home | Current Version | Previous Version | Text Only | Print | Product List | Glossary On
Versions: 1 2 3 4 5 6 7 8 9 10 11 12 13 14 15 16 17 18 19 20 21 22 23
000
FTAK31 PAJN 031740
TAFAPG
TAF
PAPG 031740Z 0318/0418 VRB03KT P6SM BCFG VCSH SCT005 BKN015 OVC030
     FM032100 06005KT P6SM -SHRA BKN025 OVC050
     FM040000 VRB04KT P6SM -SHRA BKN050
     FM040300 00000KT P6SM -SHRA SCT025 BKN050
     FM040600 00000KT P6SM -SHRA BKN025 BKN050
     FM041200 00000KT 6SM -SHRA BR SCT012 BKN025
     FM041500 VRB03KT P6SM -SHRA SCT020 BKN040=

USA.gov is the U.S. government's official web portal to all federal, state and local government web resources and services.